createdAt,value
2019-02-06T00:02:14.757Z,15.43
2019-02-06T00:04:43.363Z,15.80
2019-02-06T00:07:11.930Z,13.73
2019-02-06T00:09:40.474Z,15.27
2019-02-06T00:12:09.230Z,13.60
2019-02-06T00:14:38.066Z,13.03
2019-02-06T00:17:06.781Z,13.87
2019-02-06T00:19:35.628Z,15.17
2019-02-06T00:22:05.773Z,15.07
2019-02-06T00:24:34.362Z,14.47
2019-02-06T00:27:03.026Z,15.20
2019-02-06T00:29:31.624Z,16.27
2019-02-06T00:32:00.934Z,12.37
2019-02-06T00:34:29.496Z,14.77
2019-02-06T00:36:58.043Z,15.07
2019-02-06T00:39:26.620Z,13.07
2019-02-06T00:41:55.189Z,14.03
2019-02-06T00:44:23.754Z,13.60
2019-02-06T00:46:52.602Z,12.97
2019-02-06T00:49:21.175Z,11.67
2019-02-06T00:51:49.863Z,12.73
2019-02-06T00:54:18.431Z,12.30
2019-02-06T00:56:46.994Z,16.43
2019-02-06T00:59:15.617Z,13.80
2019-02-06T01:01:44.249Z,13.23
2019-02-06T01:04:12.802Z,12.83
2019-02-06T01:06:41.446Z,14.40
2019-02-06T01:09:10.531Z,13.40
2019-02-06T01:11:39.150Z,12.33
2019-02-06T01:14:07.749Z,12.87
2019-02-06T01:16:36.304Z,12.60
2019-02-06T01:19:05.256Z,12.17
2019-02-06T01:21:33.822Z,12.53
2019-02-06T01:24:02.467Z,12.23
2019-02-06T01:26:31.014Z,13.17
2019-02-06T01:28:59.559Z,13.33
2019-02-06T01:31:29.864Z,10.57
2019-02-06T01:33:58.435Z,13.27
2019-02-06T01:36:27.335Z,14.43
2019-02-06T01:38:55.957Z,12.80
2019-02-06T01:41:24.576Z,11.17
2019-02-06T01:43:53.144Z,13.03
2019-02-06T01:46:21.766Z,12.77
2019-02-06T01:48:50.362Z,11.67
2019-02-06T01:51:19.011Z,11.83
2019-02-06T01:53:47.571Z,11.07
2019-02-06T01:56:16.245Z,15.40
2019-02-06T01:58:44.883Z,12.27
2019-02-06T02:01:13.623Z,10.13
2019-02-06T02:03:42.186Z,10.77
2019-02-06T02:06:10.831Z,12.30
2019-02-06T02:08:44.722Z,14.77
2019-02-06T02:11:13.263Z,11.40
2019-02-06T02:13:41.830Z,14.07
2019-02-06T02:16:10.446Z,12.63
2019-02-06T02:18:38.993Z,12.53
2019-02-06T02:21:07.566Z,15.63
2019-02-06T02:23:36.611Z,13.40
2019-02-06T02:26:05.171Z,14.83
2019-02-06T02:28:33.739Z,14.17
2019-02-06T02:31:02.391Z,11.67
2019-02-06T02:33:30.946Z,12.67
2019-02-06T02:35:59.532Z,10.50
2019-02-06T02:38:28.361Z,12.77
2019-02-06T02:40:56.927Z,17.67
2019-02-06T02:43:25.575Z,12.23
2019-02-06T02:45:54.215Z,13.53
2019-02-06T02:48:22.758Z,15.60
2019-02-06T02:50:51.435Z,10.27
2019-02-06T02:53:20.006Z,10.00
2019-02-06T02:55:48.931Z,13.97
2019-02-06T02:58:17.557Z,9.93
2019-02-06T03:01:20.523Z,13.47
2019-02-06T03:04:11.123Z,11.13
2019-02-06T03:06:40.490Z,13.70
2019-02-06T03:09:11.333Z,12.43
2019-02-06T03:11:40.186Z,14.30
2019-02-06T03:14:08.752Z,11.57
2019-02-06T03:16:37.291Z,14.20
2019-02-06T03:19:05.936Z,11.20
2019-02-06T03:21:34.496Z,13.50
2019-02-06T03:24:03.043Z,10.37
2019-02-06T03:26:31.631Z,14.63
2019-02-06T03:29:00.186Z,15.33
2019-02-06T03:31:29.221Z,24.27
2019-02-06T03:33:57.858Z,15.53
2019-02-06T03:36:39.580Z,13.00
2019-02-06T03:38:58.075Z,14.10
2019-02-06T03:41:26.639Z,16.93
2019-02-06T03:43:55.207Z,15.20
2019-02-06T03:46:24.134Z,16.17
2019-02-06T03:48:52.697Z,16.80
2019-02-06T03:51:22.714Z,14.20
2019-02-06T03:53:51.290Z,26.27
2019-02-06T03:56:19.948Z,22.90
2019-02-06T03:58:48.519Z,18.40
2019-02-06T04:01:17.189Z,44.07
2019-02-06T04:03:45.983Z,21.07
2019-02-06T04:06:14.580Z,13.67
2019-02-06T04:08:43.127Z,15.17
2019-02-06T04:11:11.676Z,18.70
2019-02-06T04:13:40.243Z,20.23
2019-02-06T04:16:08.848Z,14.40
2019-02-06T04:18:37.491Z,16.47
2019-02-06T04:21:06.045Z,17.20
2019-02-06T04:23:34.617Z,12.30
2019-02-06T04:26:03.490Z,29.20
2019-02-06T04:28:32.136Z,33.97
2019-02-06T04:31:00.699Z,18.50
2019-02-06T04:33:29.407Z,17.07
2019-02-06T04:35:58.032Z,24.80
2019-02-06T04:38:26.839Z,22.50
2019-02-06T04:40:55.414Z,21.97
2019-02-06T04:43:23.976Z,28.10
2019-02-06T04:45:52.791Z,17.63
2019-02-06T04:48:21.342Z,16.97
2019-02-06T04:50:50.308Z,23.30
2019-02-06T04:53:19.039Z,24.60
2019-02-06T04:55:47.716Z,17.73
2019-02-06T04:58:16.528Z,25.07
2019-02-06T05:00:45.086Z,22.13
2019-02-06T05:03:13.636Z,17.10
2019-02-06T05:05:42.519Z,18.40
2019-02-06T05:08:11.374Z,23.93
2019-02-06T05:10:40.282Z,22.20
2019-02-06T05:13:08.874Z,19.10
2019-02-06T05:15:37.452Z,18.83
2019-02-06T05:18:05.994Z,19.97
2019-02-06T05:20:35.971Z,17.90
2019-02-06T05:23:05.095Z,21.63
2019-02-06T05:25:33.731Z,21.03
2019-02-06T05:28:02.326Z,23.87
2019-02-06T05:30:30.963Z,18.97
2019-02-06T05:32:59.553Z,25.33
2019-02-06T05:35:28.266Z,23.10
2019-02-06T05:37:56.899Z,22.73
2019-02-06T05:40:25.831Z,25.50
2019-02-06T05:42:54.703Z,21.53
2019-02-06T05:45:23.278Z,19.87
2019-02-06T05:47:51.850Z,22.60
2019-02-06T05:50:20.435Z,23.07
2019-02-06T05:52:49.002Z,22.50
2019-02-06T05:55:17.740Z,23.83
2019-02-06T05:57:47.023Z,28.27
2019-02-06T06:00:21.019Z,26.87
2019-02-06T06:02:50.006Z,23.33
2019-02-06T06:05:18.795Z,22.40
2019-02-06T06:07:47.451Z,22.93
2019-02-06T06:10:16.412Z,25.13
2019-02-06T06:12:45.583Z,26.33
2019-02-06T06:15:15.034Z,22.60
2019-02-06T06:17:43.641Z,22.93
2019-02-06T06:20:12.995Z,25.13
2019-02-06T06:22:41.640Z,25.07
2019-02-06T06:25:10.657Z,25.47
2019-02-06T06:27:39.215Z,25.40
2019-02-06T06:30:09.397Z,22.63
2019-02-06T06:32:37.970Z,24.30
2019-02-06T06:35:06.731Z,26.50
2019-02-06T06:37:35.327Z,26.40
2019-02-06T06:40:05.027Z,27.37
2019-02-06T06:42:33.576Z,26.87
2019-02-06T06:45:02.449Z,25.50
2019-02-06T06:47:31.015Z,28.57
2019-02-06T06:49:59.871Z,24.97
2019-02-06T06:52:28.483Z,30.10
2019-02-06T06:54:57.078Z,25.70
2019-02-06T06:57:25.655Z,26.77
2019-02-06T06:59:55.687Z,27.87
2019-02-06T07:02:24.378Z,29.00
2019-02-06T07:04:53.047Z,27.40
2019-02-06T07:07:21.611Z,27.67
2019-02-06T07:09:51.926Z,32.40
2019-02-06T07:12:20.539Z,28.73
2019-02-06T07:14:49.101Z,27.97
2019-02-06T07:17:18.135Z,29.27
2019-02-06T07:19:46.708Z,27.17
2019-02-06T07:22:15.259Z,27.57
2019-02-06T07:24:43.899Z,26.20
2019-02-06T07:27:12.650Z,31.07
2019-02-06T07:29:41.216Z,29.80
2019-02-06T07:32:10.179Z,34.13
2019-02-06T07:34:38.790Z,34.03
2019-02-06T07:37:07.614Z,32.37
2019-02-06T07:39:36.266Z,30.77
2019-02-06T07:42:04.818Z,29.77
2019-02-06T07:44:33.491Z,32.43
2019-02-06T07:47:02.044Z,32.93
2019-02-06T07:49:30.971Z,31.93
2019-02-06T07:51:59.561Z,31.63
2019-02-06T07:54:28.414Z,31.07
2019-02-06T07:56:57.032Z,29.43
2019-02-06T07:59:25.961Z,29.77
2019-02-06T08:01:54.624Z,30.70
2019-02-06T08:04:23.206Z,27.60
2019-02-06T08:06:51.809Z,28.93
2019-02-06T08:09:20.355Z,27.07
2019-02-06T08:11:48.930Z,30.87
2019-02-06T08:14:17.559Z,27.30
2019-02-06T08:16:46.132Z,28.73
2019-02-06T08:19:14.716Z,30.03
2019-02-06T08:21:43.642Z,31.70
2019-02-06T08:24:12.312Z,30.67
2019-02-06T08:26:40.880Z,29.23
2019-02-06T08:29:09.439Z,29.47
2019-02-06T08:31:38.030Z,30.37
2019-02-06T08:34:06.591Z,29.97
2019-02-06T08:36:35.244Z,31.70
2019-02-06T08:39:06.407Z,28.97
2019-02-06T08:41:34.966Z,28.37
2019-02-06T08:44:03.633Z,26.10
2019-02-06T08:46:32.478Z,28.33
2019-02-06T08:49:01.042Z,26.63
2019-02-06T08:51:29.630Z,26.20
2019-02-06T08:53:58.466Z,24.40
2019-02-06T08:56:27.018Z,25.10
2019-02-06T08:58:55.599Z,27.60
2019-02-06T09:01:24.272Z,26.00
2019-02-06T09:03:52.942Z,25.83
2019-02-06T09:06:21.503Z,28.57
2019-02-06T09:08:59.179Z,23.27
2019-02-06T09:11:20.399Z,33.83
2019-02-06T09:13:49.063Z,27.53
2019-02-06T09:16:17.618Z,29.07
2019-02-06T09:18:46.185Z,25.90
2019-02-06T09:21:14.774Z,26.10
2019-02-06T09:23:43.334Z,30.07
2019-02-06T09:26:12.255Z,25.20
2019-02-06T09:28:41.051Z,26.33
2019-02-06T09:31:09.621Z,23.77
2019-02-06T09:33:38.246Z,22.57
2019-02-06T09:36:07.250Z,28.50
2019-02-06T09:38:35.799Z,30.77
2019-02-06T09:41:04.347Z,24.93
2019-02-06T09:43:32.938Z,23.20
2019-02-06T09:46:01.523Z,26.40
2019-02-06T09:48:30.115Z,29.13
2019-02-06T09:50:58.690Z,24.10
2019-02-06T09:53:27.304Z,28.17
2019-02-06T09:55:55.905Z,21.90
2019-02-06T09:58:24.934Z,27.20
2019-02-06T10:00:53.508Z,25.17
2019-02-06T10:03:22.058Z,26.93
2019-02-06T10:05:50.634Z,27.43
2019-02-06T10:08:19.219Z,22.30
2019-02-06T10:10:47.874Z,24.43
2019-02-06T10:13:16.763Z,24.70
2019-02-06T10:15:45.687Z,31.00
2019-02-06T10:18:14.263Z,25.40
2019-02-06T10:20:44.465Z,23.17
2019-02-06T10:23:13.160Z,21.87
2019-02-06T10:25:41.811Z,24.37
2019-02-06T10:28:10.356Z,23.47
2019-02-06T10:30:40.887Z,28.07
2019-02-06T10:33:09.605Z,26.77
2019-02-06T10:35:38.307Z,21.80
2019-02-06T10:38:07.089Z,20.67
2019-02-06T10:40:35.676Z,24.10
2019-02-06T10:43:04.513Z,25.97
2019-02-06T10:45:33.195Z,25.97
2019-02-06T10:48:01.907Z,23.93
2019-02-06T10:50:31.794Z,25.93
2019-02-06T10:53:00.376Z,23.67
2019-02-06T10:55:28.947Z,19.70
2019-02-06T10:57:57.595Z,25.77
2019-02-06T11:00:30.027Z,34.23
2019-02-06T11:02:58.751Z,20.23
2019-02-06T11:05:27.436Z,33.00
2019-02-06T11:07:56.033Z,35.43
2019-02-06T11:10:24.670Z,24.53
2019-02-06T11:12:53.335Z,27.57
2019-02-06T11:15:22.230Z,22.90
2019-02-06T11:17:51.270Z,22.80
2019-02-06T11:20:19.934Z,30.47
2019-02-06T11:22:48.490Z,17.47
2019-02-06T11:25:17.147Z,23.40
2019-02-06T11:27:45.742Z,24.77
2019-02-06T11:30:21.847Z,23.77
2019-02-06T11:32:50.888Z,21.13
2019-02-06T11:35:19.542Z,34.67
2019-02-06T11:37:48.163Z,24.50
2019-02-06T11:40:17.699Z,18.53
2019-02-06T11:42:46.357Z,20.07
2019-02-06T11:45:16.166Z,15.57
2019-02-06T11:47:45.290Z,25.17
2019-02-06T11:50:15.586Z,13.80
2019-02-06T11:52:44.174Z,19.30
2019-02-06T11:55:13.997Z,18.63
2019-02-06T11:57:42.562Z,30.17
2019-02-06T12:00:13.291Z,23.53
2019-02-06T12:02:42.242Z,22.47
2019-02-06T12:05:10.929Z,23.00
2019-02-06T12:07:39.613Z,18.07
2019-02-06T12:10:10.305Z,13.20
2019-02-06T12:12:39.266Z,20.43
2019-02-06T12:15:09.826Z,15.10
2019-02-06T12:17:38.410Z,15.47
2019-02-06T12:20:09.218Z,16.13
2019-02-06T12:22:37.915Z,18.57
2019-02-06T12:25:07.050Z,14.30
2019-02-06T12:27:35.629Z,17.03
2019-02-06T12:30:05.878Z,12.90
2019-02-06T12:32:34.478Z,22.07
2019-02-06T12:35:03.452Z,17.97
2019-02-06T12:37:32.147Z,12.40
2019-02-06T12:40:00.730Z,15.27
2019-02-06T12:42:29.318Z,20.67
2019-02-06T12:44:59.103Z,13.60
2019-02-06T12:47:27.839Z,12.47
2019-02-06T12:49:56.498Z,14.97
2019-02-06T12:52:25.106Z,11.30
2019-02-06T12:54:53.827Z,12.77
2019-02-06T12:57:22.502Z,17.77
2019-02-06T12:59:51.118Z,13.23
2019-02-06T13:02:19.818Z,24.10
2019-02-06T13:04:48.492Z,10.90
2019-02-06T13:07:17.084Z,16.63
2019-02-06T13:09:46.107Z,21.27
2019-02-06T13:12:14.782Z,13.47
2019-02-06T13:14:43.464Z,15.73
2019-02-06T13:17:12.369Z,15.53
2019-02-06T13:19:41.011Z,18.00
2019-02-06T13:22:09.602Z,21.60
2019-02-06T13:24:38.196Z,12.17
2019-02-06T13:27:07.136Z,19.37
2019-02-06T13:29:35.704Z,22.53
2019-02-06T13:32:05.718Z,15.20
2019-02-06T13:34:34.290Z,15.47
2019-02-06T13:37:02.962Z,14.23
2019-02-06T13:39:31.538Z,15.13
2019-02-06T13:42:00.554Z,13.40
2019-02-06T13:44:29.111Z,18.83
2019-02-06T13:46:57.675Z,24.87
2019-02-06T13:49:26.269Z,15.50
2019-02-06T13:51:54.809Z,22.53
2019-02-06T13:54:23.356Z,15.27
2019-02-06T13:56:52.259Z,13.73
2019-02-06T13:59:20.937Z,13.57
2019-02-06T14:01:49.572Z,14.03
2019-02-06T14:04:18.155Z,18.77
2019-02-06T14:06:46.707Z,19.20
2019-02-06T14:09:22.702Z,14.47
2019-02-06T14:11:46.942Z,12.00
2019-02-06T14:14:15.498Z,18.40
2019-02-06T14:16:47.555Z,13.57
2019-02-06T14:19:16.140Z,19.53
2019-02-06T14:21:45.050Z,17.77
2019-02-06T14:24:16.726Z,17.67
2019-02-06T14:26:47.681Z,13.10
2019-02-06T14:29:50.795Z,12.13
2019-02-06T14:32:30.807Z,21.03
2019-02-06T14:35:24.069Z,25.00
2019-02-06T14:38:13.622Z,13.07
2019-02-06T14:40:55.942Z,13.63
2019-02-06T14:43:41.334Z,26.10
2019-02-06T14:46:32.078Z,23.70
2019-02-06T14:49:13.890Z,19.43
2019-02-06T14:52:04.651Z,19.43
2019-02-06T14:54:42.653Z,11.53
2019-02-06T14:57:39.646Z,15.00
2019-02-06T15:00:12.019Z,16.10
2019-02-06T15:02:50.067Z,10.87
2019-02-06T15:05:44.046Z,15.67
2019-02-06T15:08:35.115Z,26.67
2019-02-06T15:11:19.322Z,17.53
2019-02-06T15:14:17.684Z,20.30
2019-02-06T15:17:08.511Z,20.30
2019-02-06T15:19:56.210Z,37.37
2019-02-06T15:22:40.668Z,18.87
2019-02-06T15:25:31.328Z,17.30
2019-02-06T15:28:37.750Z,14.87
2019-02-06T15:31:16.239Z,19.70
2019-02-06T15:33:53.469Z,20.97
2019-02-06T15:36:40.814Z,11.77
2019-02-06T15:39:17.736Z,11.00
2019-02-06T15:42:04.457Z,18.57
2019-02-06T15:44:39.759Z,13.70
2019-02-06T15:47:27.550Z,17.27
2019-02-06T15:50:26.256Z,18.97
2019-02-06T15:52:55.210Z,12.67
2019-02-06T15:56:01.326Z,17.53
2019-02-06T15:59:01.587Z,17.30
2019-02-06T16:01:58.350Z,15.90
2019-02-06T16:04:49.500Z,14.53
2019-02-06T16:07:37.170Z,17.00
2019-02-06T16:10:23.626Z,14.43
2019-02-06T16:13:20.407Z,16.00
2019-02-06T16:15:55.891Z,12.23
2019-02-06T16:18:30.371Z,17.80
2019-02-06T16:21:12.911Z,14.60
2019-02-06T16:23:59.468Z,12.87
2019-02-06T16:26:43.767Z,12.60
2019-02-06T16:29:30.558Z,20.20
2019-02-06T16:32:05.376Z,14.90
2019-02-06T16:34:53.092Z,12.83
2019-02-06T16:37:43.846Z,17.97
2019-02-06T16:40:40.691Z,14.10
2019-02-06T16:43:27.111Z,12.03
2019-02-06T16:46:10.693Z,14.40
2019-02-06T16:48:51.655Z,13.80
2019-02-06T16:51:23.334Z,23.73
2019-02-06T16:54:11.046Z,14.50
2019-02-06T16:57:17.171Z,15.40
2019-02-06T17:00:03.799Z,10.93
2019-02-06T17:02:41.914Z,15.77
2019-02-06T17:05:31.266Z,15.87
2019-02-06T17:08:33.426Z,18.63
2019-02-06T17:11:21.132Z,12.07
2019-02-06T17:14:08.839Z,14.67
2019-02-06T17:17:05.630Z,18.73
2019-02-06T17:19:39.159Z,18.33
2019-02-06T17:22:14.718Z,19.53
2019-02-06T17:24:49.867Z,18.70
2019-02-06T17:27:38.356Z,17.77
2019-02-06T17:30:24.906Z,17.67
2019-02-06T17:33:02.738Z,19.50
2019-02-06T17:35:46.238Z,16.03
2019-02-06T17:38:37.567Z,14.63
2019-02-06T17:41:27.507Z,15.17
2019-02-06T17:44:21.722Z,14.20
2019-02-06T17:47:02.902Z,15.47
2019-02-06T17:49:56.421Z,16.33
2019-02-06T17:52:30.083Z,20.50
2019-02-06T17:55:17.782Z,20.10
2019-02-06T17:57:47.031Z,15.63
2019-02-06T18:00:33.538Z,16.97
2019-02-06T18:03:03.170Z,13.37
2019-02-06T18:05:31.857Z,13.83
2019-02-06T18:08:03.303Z,15.07
2019-02-06T18:10:31.938Z,15.33
2019-02-06T18:13:00.599Z,15.47
2019-02-06T18:15:31.295Z,13.93
2019-02-06T18:18:01.466Z,17.20
2019-02-06T18:20:30.102Z,15.10
2019-02-06T18:22:58.999Z,15.73
2019-02-06T18:25:27.662Z,21.17
2019-02-06T18:27:56.414Z,14.37
2019-02-06T18:30:26.084Z,15.23
2019-02-06T18:32:55.510Z,15.97
2019-02-06T18:35:24.319Z,16.67
2019-02-06T18:37:52.979Z,18.40
2019-02-06T18:40:23.027Z,22.90
2019-02-06T18:42:51.668Z,13.53
2019-02-06T18:45:20.783Z,13.47
2019-02-06T18:47:51.598Z,14.47
2019-02-06T18:50:21.215Z,16.33
2019-02-06T18:52:49.878Z,19.83
2019-02-06T18:55:21.226Z,20.20
2019-02-06T18:57:48.914Z,15.33
2019-02-06T19:00:20.319Z,13.90
2019-02-06T19:02:49.079Z,13.97
2019-02-06T19:05:18.519Z,15.57
2019-02-06T19:07:47.266Z,12.33
2019-02-06T19:10:17.900Z,13.20
2019-02-06T19:12:47.954Z,13.50
2019-02-06T19:15:17.258Z,15.07
2019-02-06T19:17:46.304Z,17.27
2019-02-06T19:20:15.553Z,14.93
2019-02-06T19:22:44.158Z,19.50
2019-02-06T19:25:12.884Z,14.93
2019-02-06T19:27:41.548Z,17.77
2019-02-06T19:30:13.092Z,16.60
2019-02-06T19:32:44.407Z,24.23
2019-02-06T19:35:12.002Z,13.40
2019-02-06T19:37:40.575Z,19.70
2019-02-06T19:40:09.251Z,18.40
2019-02-06T19:42:37.900Z,13.47
2019-02-06T19:45:06.896Z,15.37
2019-02-06T19:47:35.572Z,13.23
2019-02-06T19:50:05.918Z,14.07
2019-02-06T19:52:34.878Z,14.67
2019-02-06T19:55:03.570Z,16.53
2019-02-06T19:57:32.259Z,17.07
2019-02-06T20:00:01.112Z,12.10
2019-02-06T20:02:29.746Z,11.83
2019-02-06T20:04:58.503Z,22.77
2019-02-06T20:07:35.081Z,11.43
2019-02-06T20:10:05.214Z,20.87
2019-02-06T20:12:34.368Z,13.60
2019-02-06T20:15:03.128Z,13.70
2019-02-06T20:17:31.949Z,15.10
2019-02-06T20:20:00.703Z,12.97
2019-02-06T20:22:29.536Z,13.70
2019-02-06T20:24:58.606Z,11.03
2019-02-06T20:27:27.748Z,13.80
2019-02-06T20:29:57.899Z,17.33
2019-02-06T20:32:26.600Z,13.63
2019-02-06T20:34:55.254Z,13.97
2019-02-06T20:37:25.203Z,14.13
2019-02-06T20:39:54.415Z,12.40
2019-02-06T20:42:23.608Z,16.73
2019-02-06T20:44:52.937Z,17.60
2019-02-06T20:47:21.735Z,12.03
2019-02-06T20:49:50.707Z,12.90
2019-02-06T20:52:19.331Z,12.90
2019-02-06T20:54:48.792Z,12.20
2019-02-06T20:57:36.618Z,12.60
2019-02-06T21:00:10.667Z,12.73
2019-02-06T21:02:42.222Z,11.70
2019-02-06T21:05:12.595Z,12.77
2019-02-06T21:07:46.253Z,12.93
2019-02-06T21:10:16.239Z,16.00
2019-02-06T21:12:45.055Z,15.30
2019-02-06T21:15:13.760Z,14.87
2019-02-06T21:18:01.530Z,14.00
2019-02-06T21:20:30.139Z,15.07
2019-02-06T21:23:00.616Z,14.63
2019-02-06T21:25:29.262Z,15.40
2019-02-06T21:27:58.009Z,14.60
2019-02-06T21:30:27.910Z,15.50
2019-02-06T21:32:56.540Z,12.30
2019-02-06T21:35:25.184Z,12.37
2019-02-06T21:38:18.388Z,17.33
2019-02-06T21:40:47.063Z,15.93
2019-02-06T21:43:15.645Z,13.73
2019-02-06T21:45:44.356Z,15.53
2019-02-06T21:48:12.974Z,17.10
2019-02-06T21:50:41.631Z,14.57
2019-02-06T21:53:10.728Z,16.60
2019-02-06T21:55:39.379Z,15.60
2019-02-06T21:58:07.927Z,13.70
2019-02-06T22:00:38.196Z,12.83
2019-02-06T22:03:28.734Z,14.50
2019-02-06T22:05:57.272Z,13.63
2019-02-06T22:08:25.903Z,12.13
2019-02-06T22:10:54.496Z,13.53
2019-02-06T22:13:23.138Z,12.53
2019-02-06T22:15:52.282Z,11.97
2019-02-06T22:18:20.871Z,13.80
2019-02-06T22:20:49.539Z,13.80
2019-02-06T22:23:18.111Z,12.20
2019-02-06T22:25:46.692Z,11.53
2019-02-06T22:28:15.276Z,17.97
2019-02-06T22:30:44.194Z,15.10
2019-02-06T22:33:12.978Z,16.27
2019-02-06T22:35:41.527Z,11.37
2019-02-06T22:38:10.070Z,14.57
2019-02-06T22:40:38.691Z,15.70
2019-02-06T22:43:07.238Z,17.00
2019-02-06T22:45:35.804Z,13.20
2019-02-06T22:48:05.091Z,10.90
2019-02-06T22:50:33.641Z,14.60
2019-02-06T22:53:02.272Z,15.37
2019-02-06T22:55:31.030Z,13.03
2019-02-06T22:57:59.570Z,14.03
2019-02-06T23:00:46.185Z,14.83
2019-02-06T23:03:16.195Z,12.67
2019-02-06T23:05:44.842Z,16.17
2019-02-06T23:08:13.417Z,15.07
2019-02-06T23:10:42.043Z,11.57
2019-02-06T23:13:10.743Z,16.07
2019-02-06T23:15:39.595Z,17.90
2019-02-06T23:18:08.139Z,15.83
2019-02-06T23:20:36.737Z,14.47
2019-02-06T23:23:05.391Z,13.53
2019-02-06T23:25:33.994Z,12.20
2019-02-06T23:28:02.539Z,12.87
2019-02-06T23:30:31.458Z,12.90
2019-02-06T23:33:00.026Z,14.77
2019-02-06T23:35:28.579Z,17.27
2019-02-06T23:37:57.139Z,13.53
2019-02-06T23:40:25.734Z,13.33
2019-02-06T23:42:54.327Z,13.70
2019-02-06T23:45:23.267Z,15.23
2019-02-06T23:47:51.842Z,13.23
2019-02-06T23:50:20.382Z,11.20
2019-02-06T23:52:48.962Z,10.90
2019-02-06T23:55:17.550Z,11.60
2019-02-06T23:57:46.106Z,17.40
